Time;durP1;ratioP1;P1;durP2;ratioP2;P2;SDS_P1;SDS_P2;PMS_P1;PMS_P2;Temp;Humidity;BMP_temperature;BMP_pressure;BME280_temperature;BME280_humidity;BME280_pressure;Samples;Min_cycle;Max_cycle;Signal;HPM_P1;HPM_P2
2022/07/21 00:01:21;;;;;;;13.48;10.57;;;;;;;;;;8282906;28;20545;-60
2022/07/21 00:05:22;;;;;;;14.38;11.25;;;;;;;;;;8284675;28;20022;-60
2022/07/21 00:09:22;;;;;;;13.73;11.43;;;;;;;;;;8283942;28;20025;-60
2022/07/21 00:13:23;;;;;;;16.70;11.75;;;;;;;;;;8280396;28;20760;-60
2022/07/21 00:17:23;;;;;;;16.03;11.80;;;;;;;;;;8302848;28;20048;-60
2022/07/21 00:21:24;;;;;;;13.95;11.32;;;;;;;;;;8318149;28;20128;-60
2022/07/21 00:25:25;;;;;;;12.77;11.13;;;;;;;;;;8317394;28;20036;-60
2022/07/21 00:29:25;;;;;;;13.40;9.85;;;;;;;;;;8313247;28;20356;-60
2022/07/21 00:33:25;;;;;;;13.37;9.70;;;;;;;;;;8314193;28;20068;-60
2022/07/21 00:37:27;;;;;;;10.18;8.82;;;;;;;;;;8316854;28;20106;-60
2022/07/21 00:41:27;;;;;;;9.73;8.27;;;;;;;;;;8315875;28;20029;-60
2022/07/21 00:45:27;;;;;;;10.15;8.27;;;;;;;;;;8307854;28;20076;-61
2022/07/21 00:49:27;;;;;;;8.40;7.50;;;;;;;;;;8281998;28;20030;-60
2022/07/21 00:53:28;;;;;;;11.50;8.05;;;;;;;;;;8281385;28;20091;-64
2022/07/21 00:57:28;;;;;;;11.73;6.93;;;;;;;;;;8281563;28;20033;-61
2022/07/21 01:01:28;;;;;;;7.97;7.15;;;;;;;;;;8282097;28;20368;-61
2022/07/21 01:05:29;;;;;;;8.30;6.90;;;;;;;;;;8284452;28;20029;-60
2022/07/21 01:09:29;;;;;;;7.57;6.80;;;;;;;;;;8282324;28;20263;-61
2022/07/21 01:13:29;;;;;;;9.30;6.97;;;;;;;;;;8280589;28;20028;-60
2022/07/21 01:17:29;;;;;;;6.75;5.80;;;;;;;;;;8280427;28;20569;-60
2022/07/21 01:21:31;;;;;;;8.88;6.20;;;;;;;;;;8278396;28;20455;-60
2022/07/21 01:25:32;;;;;;;6.95;6.00;;;;;;;;;;8278084;28;20029;-60
2022/07/21 01:29:32;;;;;;;8.87;6.13;;;;;;;;;;8280714;28;20776;-61
2022/07/21 01:33:32;;;;;;;7.85;5.47;;;;;;;;;;8276240;28;20454;-60
2022/07/21 01:37:37;;;;;;;8.55;5.07;;;;;;;;;;8282470;28;20415;-60
2022/07/21 01:41:37;;;;;;;9.93;5.35;;;;;;;;;;8280593;28;20044;-61
2022/07/21 01:45:37;;;;;;;6.45;5.28;;;;;;;;;;8280002;28;20042;-60
2022/07/21 01:49:37;;;;;;;7.43;5.25;;;;;;;;;;8282973;28;20033;-60
2022/07/21 01:53:38;;;;;;;6.25;4.90;;;;;;;;;;8278616;28;20084;-61
2022/07/21 01:57:38;;;;;;;6.30;4.65;;;;;;;;;;8278538;28;20048;-61
2022/07/21 02:01:38;;;;;;;10.45;5.72;;;;;;;;;;8280119;28;20038;-60
2022/07/21 02:05:39;;;;;;;5.35;4.70;;;;;;;;;;8282962;28;20037;-61
2022/07/21 02:09:39;;;;;;;7.13;5.03;;;;;;;;;;8282523;28;20033;-60
2022/07/21 02:13:39;;;;;;;6.53;4.60;;;;;;;;;;8286197;28;20029;-60
2022/07/21 02:17:40;;;;;;;5.65;4.97;;;;;;;;;;8285175;28;20195;-61
2022/07/21 02:21:40;;;;;;;7.83;5.40;;;;;;;;;;8286680;28;20038;-60
2022/07/21 02:25:40;;;;;;;5.93;5.13;;;;;;;;;;8286084;28;20033;-60
2022/07/21 02:29:41;;;;;;;9.05;5.15;;;;;;;;;;8288475;28;20122;-60
2022/07/21 02:33:41;;;;;;;5.75;4.72;;;;;;;;;;8282235;28;20037;-60
2022/07/21 02:37:41;;;;;;;7.60;5.00;;;;;;;;;;8285266;28;20033;-61
2022/07/21 02:41:41;;;;;;;6.05;5.05;;;;;;;;;;8285451;28;20458;-60
2022/07/21 02:45:43;;;;;;;6.30;4.80;;;;;;;;;;8286188;28;20776;-60
2022/07/21 02:49:44;;;;;;;5.40;4.60;;;;;;;;;;8285062;28;20336;-59
2022/07/21 02:53:45;;;;;;;7.30;4.70;;;;;;;;;;8283455;28;20025;-60
2022/07/21 02:57:45;;;;;;;5.38;4.88;;;;;;;;;;8285600;28;20037;-60
2022/07/21 03:01:45;;;;;;;5.47;4.50;;;;;;;;;;8283969;28;20029;-59
2022/07/21 03:05:46;;;;;;;8.52;4.90;;;;;;;;;;8285739;28;20201;-60
2022/07/21 03:09:46;;;;;;;4.95;4.30;;;;;;;;;;8283462;28;20021;-60
2022/07/21 03:13:46;;;;;;;5.03;4.53;;;;;;;;;;8286043;28;20748;-60
2022/07/21 03:17:47;;;;;;;5.32;4.70;;;;;;;;;;8284539;28;20059;-61
2022/07/21 03:21:47;;;;;;;5.95;4.85;;;;;;;;;;8284069;28;20067;-60
2022/07/21 03:25:47;;;;;;;6.03;4.90;;;;;;;;;;8282189;28;20366;-60
2022/07/21 03:29:47;;;;;;;6.13;4.90;;;;;;;;;;8286788;28;20636;-59
2022/07/21 03:33:47;;;;;;;6.05;5.13;;;;;;;;;;8283266;28;20048;-59
2022/07/21 03:37:52;;;;;;;9.43;5.22;;;;;;;;;;8285744;28;20091;-60
2022/07/21 03:41:52;;;;;;;7.03;5.18;;;;;;;;;;8282953;28;20188;-60
2022/07/21 03:45:52;;;;;;;5.18;4.68;;;;;;;;;;8283677;28;20111;-61
2022/07/21 03:49:53;;;;;;;6.28;5.28;;;;;;;;;;8282121;28;20033;-60
2022/07/21 03:53:53;;;;;;;6.05;5.00;;;;;;;;;;8282254;28;20784;-60
2022/07/21 03:57:54;;;;;;;6.55;5.05;;;;;;;;;;8284038;28;20144;-61
2022/07/21 04:01:55;;;;;;;5.70;5.10;;;;;;;;;;8281960;28;20076;-60
2022/07/21 04:05:55;;;;;;;7.80;5.13;;;;;;;;;;8283277;28;20029;-61
2022/07/21 04:09:55;;;;;;;6.22;5.20;;;;;;;;;;8283206;28;20309;-61
2022/07/21 04:13:55;;;;;;;6.55;5.25;;;;;;;;;;8285520;28;20025;-61
2022/07/21 04:17:56;;;;;;;5.90;5.10;;;;;;;;;;8282385;28;21544;-61
2022/07/21 04:21:57;;;;;;;6.85;5.03;;;;;;;;;;8281353;28;20049;-60
2022/07/21 04:25:58;;;;;;;5.47;4.90;;;;;;;;;;8282511;28;20487;-61
2022/07/21 04:29:59;;;;;;;5.45;4.68;;;;;;;;;;8283896;28;20028;-60
2022/07/21 04:33:59;;;;;;;5.82;5.22;;;;;;;;;;8280701;28;20506;-62
2022/07/21 04:37:59;;;;;;;5.57;4.72;;;;;;;;;;8280672;28;20091;-60
2022/07/21 04:41:59;;;;;;;6.47;4.97;;;;;;;;;;8281928;28;20029;-61
2022/07/21 04:45:59;;;;;;;7.43;5.10;;;;;;;;;;8282882;28;20037;-60
2022/07/21 04:50:00;;;;;;;7.90;5.20;;;;;;;;;;8278140;28;20047;-60
2022/07/21 04:54:00;;;;;;;5.93;5.30;;;;;;;;;;8279600;28;20035;-60
2022/07/21 04:58:00;;;;;;;6.88;5.18;;;;;;;;;;8278931;28;20035;-61
2022/07/21 05:02:01;;;;;;;6.22;5.20;;;;;;;;;;8277966;28;20034;-60
2022/07/21 05:06:01;;;;;;;6.55;5.35;;;;;;;;;;8281162;28;20029;-61
2022/07/21 05:10:08;;;;;;;7.82;6.30;;;;;;;;;;8281218;28;20563;-61
2022/07/21 05:14:08;;;;;;;8.73;6.57;;;;;;;;;;8282679;28;20028;-60
2022/07/21 05:18:08;;;;;;;12.27;7.22;;;;;;;;;;8281902;28;20478;-61
2022/07/21 05:22:09;;;;;;;12.02;6.68;;;;;;;;;;8280995;28;20078;-60
2022/07/21 05:26:09;;;;;;;9.63;7.22;;;;;;;;;;8279922;28;20055;-61
2022/07/21 05:30:10;;;;;;;7.00;6.30;;;;;;;;;;8279924;28;20068;-61
2022/07/21 05:34:10;;;;;;;10.73;6.13;;;;;;;;;;8282796;28;20020;-60
2022/07/21 05:38:10;;;;;;;7.35;5.63;;;;;;;;;;8277711;28;20037;-60
2022/07/21 05:42:11;;;;;;;7.97;5.90;;;;;;;;;;8275545;28;20621;-62
2022/07/21 05:46:11;;;;;;;6.82;5.65;;;;;;;;;;8310700;28;20073;-61
2022/07/21 05:50:12;;;;;;;9.23;4.87;;;;;;;;;;8280221;28;20033;-61
2022/07/21 05:54:12;;;;;;;5.85;5.00;;;;;;;;;;8279941;28;20025;-61
2022/07/21 05:58:12;;;;;;;9.60;4.20;;;;;;;;;;8281270;28;20026;-61
2022/07/21 06:02:12;;;;;;;6.65;4.53;;;;;;;;;;8278347;28;20026;-61
2022/07/21 06:06:13;;;;;;;4.68;3.83;;;;;;;;;;8282589;28;20033;-61
2022/07/21 06:10:14;;;;;;;7.15;3.60;;;;;;;;;;8281956;28;20085;-62
2022/07/21 06:14:14;;;;;;;4.72;3.65;;;;;;;;;;8279718;28;20112;-61
2022/07/21 06:22:57;;;;;;;5.40;3.87;;;;;;;;;;8281717;28;20246;-61
2022/07/21 06:26:57;;;;;;;4.18;3.78;;;;;;;;;;8280595;28;20423;-61
2022/07/21 06:30:57;;;;;;;4.78;3.60;;;;;;;;;;8278841;28;20373;-61
2022/07/21 06:34:57;;;;;;;5.70;3.60;;;;;;;;;;8279991;28;20037;-60
2022/07/21 06:38:57;;;;;;;5.10;3.20;;;;;;;;;;8278165;28;20136;-60
2022/07/21 06:42:58;;;;;;;6.72;3.95;;;;;;;;;;8278874;28;20072;-61
2022/07/21 06:47:04;;;;;;;4.50;3.73;;;;;;;;;;8277170;28;20124;-61
2022/07/21 06:51:04;;;;;;;8.07;3.60;;;;;;;;;;8280476;28;20033;-60
2022/07/21 06:55:05;;;;;;;4.23;3.70;;;;;;;;;;8280171;28;20032;-60
2022/07/21 06:59:06;;;;;;;4.35;3.55;;;;;;;;;;8284094;28;20962;-60
2022/07/21 07:03:06;;;;;;;4.88;3.83;;;;;;;;;;8284614;28;20030;-61
2022/07/21 07:07:06;;;;;;;4.30;3.53;;;;;;;;;;8281717;28;20036;-60
2022/07/21 07:11:07;;;;;;;7.53;4.05;;;;;;;;;;8285359;28;20052;-60
2022/07/21 07:15:07;;;;;;;7.23;3.70;;;;;;;;;;8282832;28;20026;-61
2022/07/21 07:19:07;;;;;;;5.57;4.10;;;;;;;;;;8287629;28;20037;-61
2022/07/21 07:23:07;;;;;;;3.60;3.30;;;;;;;;;;8278851;28;20723;-63
2022/07/21 07:27:08;;;;;;;5.68;3.47;;;;;;;;;;8284873;28;20213;-61
2022/07/21 07:31:08;;;;;;;6.15;3.45;;;;;;;;;;8283157;28;20036;-61
2022/07/21 07:35:09;;;;;;;7.90;3.53;;;;;;;;;;8280496;28;20026;-60
2022/07/21 07:39:10;;;;;;;6.25;3.78;;;;;;;;;;8282291;28;20057;-60
2022/07/21 07:43:10;;;;;;;4.50;3.50;;;;;;;;;;8283045;28;20022;-60
2022/07/21 07:47:10;;;;;;;9.67;3.70;;;;;;;;;;8281627;28;20049;-60
2022/07/21 07:51:11;;;;;;;7.10;3.53;;;;;;;;;;8284370;28;20060;-60
2022/07/21 07:55:12;;;;;;;5.38;3.78;;;;;;;;;;8282162;28;20598;-60
2022/07/21 07:59:12;;;;;;;6.65;3.47;;;;;;;;;;8283427;28;20048;-61
2022/07/21 08:03:13;;;;;;;4.47;3.60;;;;;;;;;;8281490;28;20029;-61
2022/07/21 08:07:13;;;;;;;4.15;3.60;;;;;;;;;;8282423;28;20025;-61
2022/07/21 08:11:14;;;;;;;4.38;3.47;;;;;;;;;;8279932;28;20029;-61
2022/07/21 08:15:15;;;;;;;4.28;3.60;;;;;;;;;;8278344;28;20057;-61
2022/07/21 08:19:15;;;;;;;4.30;3.28;;;;;;;;;;8281630;28;20013;-60
2022/07/21 08:23:16;;;;;;;5.10;3.40;;;;;;;;;;8280667;28;20036;-60
2022/07/21 08:27:16;;;;;;;5.88;3.30;;;;;;;;;;8281806;28;20033;-60
2022/07/21 08:31:16;;;;;;;8.70;3.50;;;;;;;;;;8281300;28;20069;-60
2022/07/21 08:35:17;;;;;;;3.65;3.30;;;;;;;;;;8281795;28;20026;-60
2022/07/21 08:39:17;;;;;;;4.05;3.22;;;;;;;;;;8280154;28;20025;-61
2022/07/21 08:43:17;;;;;;;3.70;3.30;;;;;;;;;;8280767;28;20435;-60
2022/07/21 08:47:17;;;;;;;4.05;3.50;;;;;;;;;;8297220;28;20052;-61
2022/07/21 08:51:17;;;;;;;4.45;3.28;;;;;;;;;;8313897;28;20032;-61
2022/07/21 08:55:18;;;;;;;3.35;3.05;;;;;;;;;;8314433;28;20029;-60
2022/07/21 08:59:18;;;;;;;3.38;2.90;;;;;;;;;;8315168;28;20066;-61
2022/07/21 09:03:19;;;;;;;6.15;3.30;;;;;;;;;;8314134;28;20151;-61
2022/07/21 09:07:19;;;;;;;5.30;3.33;;;;;;;;;;8313370;28;20679;-61
2022/07/21 09:11:23;;;;;;;3.90;3.30;;;;;;;;;;8315791;28;20013;-61
2022/07/21 09:15:26;;;;;;;8.38;3.20;;;;;;;;;;8311828;28;20048;-61
2022/07/21 09:19:26;;;;;;;3.42;3.10;;;;;;;;;;8281277;28;20116;-62
2022/07/21 09:23:45;;;;;;;4.63;2.83;;;;;;;;;;8283170;28;20501;-60
2022/07/21 09:27:46;;;;;;;5.85;2.58;;;;;;;;;;8293575;28;20148;-60
2022/07/21 09:31:47;;;;;;;4.35;2.75;;;;;;;;;;8278863;28;20686;-60
2022/07/21 09:35:58;;;;;;;2.97;2.50;;;;;;;;;;8279738;28;20033;-60
2022/07/21 09:40:06;;;;;;;4.18;2.75;;;;;;;;;;8279267;28;20091;-61
2022/07/21 09:44:06;;;;;;;3.55;2.65;;;;;;;;;;8278079;28;20434;-60
2022/07/21 09:48:08;;;;;;;3.80;2.70;;;;;;;;;;8278010;28;20033;-60
2022/07/21 09:52:09;;;;;;;;;;;;;;;;;;8278383;28;20552;-60
2022/07/21 09:56:09;;;;;;;2.70;2.50;;;;;;;;;;8277635;28;19912;-60
2022/07/21 10:00:12;;;;;;;2.87;2.23;;;;;;;;;;8274534;28;20045;-61
2022/07/21 10:04:12;;;;;;;4.15;2.47;;;;;;;;;;8280154;28;20513;-61
2022/07/21 10:08:13;;;;;;;2.40;2.20;;;;;;;;;;8276442;28;20128;-60
2022/07/21 10:12:14;;;;;;;2.25;1.90;;;;;;;;;;8277702;28;20026;-60
2022/07/21 10:16:14;;;;;;;4.00;2.00;;;;;;;;;;8280106;28;20103;-60
2022/07/21 10:20:26;;;;;;;5.27;2.07;;;;;;;;;;8279107;28;20986;-60
2022/07/21 10:24:29;;;;;;;2.50;2.10;;;;;;;;;;8278900;28;20022;-60
2022/07/21 10:28:30;;;;;;;2.55;2.30;;;;;;;;;;8280180;28;20034;-62
2022/07/21 10:32:32;;;;;;;9.85;2.42;;;;;;;;;;8282766;28;20119;-61
2022/07/21 10:36:36;;;;;;;3.45;2.20;;;;;;;;;;8285169;28;20037;-61
2022/07/21 10:40:36;;;;;;;3.95;2.90;;;;;;;;;;8286537;28;20072;-61
2022/07/21 10:44:45;;;;;;;3.53;2.85;;;;;;;;;;8286240;28;20072;-60
2022/07/21 10:48:46;;;;;;;3.63;2.78;;;;;;;;;;8282435;28;20549;-61
2022/07/21 10:52:49;;;;;;;5.13;2.90;;;;;;;;;;8280069;28;20105;-60
2022/07/21 10:57:09;;;;;;;3.50;2.72;;;;;;;;;;8283532;28;20076;-61
2022/07/21 11:01:15;;;;;;;3.20;2.90;;;;;;;;;;8285709;28;20061;-60
2022/07/21 11:05:16;;;;;;;3.90;3.00;;;;;;;;;;8284060;28;20782;-61
2022/07/21 11:09:19;;;;;;;7.17;3.20;;;;;;;;;;8284144;28;20040;-60
2022/07/21 11:13:21;;;;;;;3.92;2.90;;;;;;;;;;8280343;28;20026;-61
2022/07/21 11:17:28;;;;;;;3.40;2.85;;;;;;;;;;8280630;28;20128;-60
2022/07/21 11:21:28;;;;;;;3.45;3.03;;;;;;;;;;8281189;28;20053;-60
2022/07/21 11:25:29;;;;;;;4.05;2.97;;;;;;;;;;8281335;28;20037;-60
2022/07/21 11:29:29;;;;;;;3.10;2.80;;;;;;;;;;8280410;28;20026;-60
2022/07/21 11:33:29;;;;;;;5.43;3.10;;;;;;;;;;8279180;28;20100;-64
2022/07/21 11:37:31;;;;;;;3.42;3.00;;;;;;;;;;8284074;28;20033;-60
2022/07/21 11:41:32;;;;;;;6.18;3.30;;;;;;;;;;8280223;28;20033;-60
2022/07/21 11:45:32;;;;;;;10.73;3.63;;;;;;;;;;8281447;28;20680;-60
2022/07/21 11:49:33;;;;;;;4.93;3.53;;;;;;;;;;8279080;28;20487;-60
2022/07/21 11:53:33;;;;;;;5.07;3.90;;;;;;;;;;8279651;28;20387;-60
2022/07/21 11:57:34;;;;;;;5.50;3.63;;;;;;;;;;8281963;28;20109;-60
2022/07/21 12:01:46;;;;;;;5.60;4.03;;;;;;;;;;8280440;28;20121;-60
2022/07/21 12:05:47;;;;;;;5.05;3.88;;;;;;;;;;8280922;28;20022;-67
2022/07/21 12:09:50;;;;;;;5.57;3.90;;;;;;;;;;8279381;28;20025;-60
2022/07/21 12:13:51;;;;;;;4.28;3.88;;;;;;;;;;8279064;28;20575;-60
2022/07/21 12:17:53;;;;;;;10.25;3.83;;;;;;;;;;8277316;28;20086;-60
2022/07/21 12:21:53;;;;;;;4.68;3.60;;;;;;;;;;8278189;28;20021;-61
2022/07/21 12:25:54;;;;;;;5.78;3.50;;;;;;;;;;8281218;28;20512;-61
2022/07/21 12:29:55;;;;;;;7.43;3.58;;;;;;;;;;8282344;28;20386;-61
2022/07/21 12:33:56;;;;;;;6.72;3.80;;;;;;;;;;8277488;28;20068;-61
2022/07/21 12:37:59;;;;;;;5.63;3.70;;;;;;;;;;8278226;28;20040;-61
2022/07/21 12:41:59;;;;;;;7.88;3.80;;;;;;;;;;8279661;28;20553;-61
2022/07/21 12:46:02;;;;;;;6.47;3.60;;;;;;;;;;8286784;28;20713;-61
2022/07/21 12:50:06;;;;;;;4.93;3.60;;;;;;;;;;8283868;28;20075;-60
2022/07/21 12:54:06;;;;;;;3.60;3.15;;;;;;;;;;8281420;28;20025;-61
2022/07/21 12:58:07;;;;;;;3.67;3.33;;;;;;;;;;8282652;28;20681;-66
2022/07/21 13:02:07;;;;;;;3.53;3.00;;;;;;;;;;8278414;28;20037;-61
2022/07/21 13:06:08;;;;;;;5.40;3.40;;;;;;;;;;8283172;28;20040;-61
2022/07/21 13:10:09;;;;;;;5.68;3.10;;;;;;;;;;8285086;28;20550;-61
2022/07/21 13:14:09;;;;;;;5.57;3.30;;;;;;;;;;8281290;28;20532;-61
2022/07/21 13:18:10;;;;;;;5.10;3.30;;;;;;;;;;8281253;28;20268;-61
2022/07/21 13:22:10;;;;;;;4.27;3.03;;;;;;;;;;8279379;28;20453;-61
2022/07/21 13:26:10;;;;;;;3.70;3.28;;;;;;;;;;8282979;28;20056;-61
2022/07/21 13:30:10;;;;;;;4.72;3.10;;;;;;;;;;8281100;28;20204;-61
2022/07/21 13:34:11;;;;;;;7.30;3.20;;;;;;;;;;8283808;28;20017;-61
2022/07/21 13:38:11;;;;;;;5.13;2.90;;;;;;;;;;8280924;28;20278;-61
2022/07/21 13:42:11;;;;;;;3.58;2.67;;;;;;;;;;8279309;28;20155;-61
2022/07/21 13:46:11;;;;;;;7.73;2.40;;;;;;;;;;8280447;28;20049;-64
2022/07/21 13:50:12;;;;;;;4.72;2.70;;;;;;;;;;8281985;28;20025;-62
2022/07/21 13:54:12;;;;;;;3.92;2.88;;;;;;;;;;8282315;28;20028;-62
2022/07/21 13:58:12;;;;;;;3.92;2.85;;;;;;;;;;8278720;28;20022;-61
2022/07/21 14:02:12;;;;;;;5.88;3.00;;;;;;;;;;8277739;28;20045;-61
2022/07/21 14:06:13;;;;;;;4.15;2.85;;;;;;;;;;8279664;28;20140;-61
2022/07/21 14:10:13;;;;;;;3.65;3.00;;;;;;;;;;8290034;28;20022;-61
2022/07/21 14:14:20;;;;;;;3.30;3.00;;;;;;;;;;8278048;28;20387;-61
2022/07/21 14:18:20;;;;;;;5.40;2.70;;;;;;;;;;8283669;28;20367;-61
2022/07/21 14:22:21;;;;;;;4.70;2.80;;;;;;;;;;8280278;28;20500;-60
2022/07/21 14:26:22;;;;;;;4.35;2.70;;;;;;;;;;8283748;28;20096;-60
2022/07/21 14:30:23;;;;;;;4.57;2.60;;;;;;;;;;8284318;28;20049;-61
2022/07/21 14:34:23;;;;;;;3.28;2.50;;;;;;;;;;8285752;28;20352;-61
2022/07/21 14:38:24;;;;;;;3.95;2.72;;;;;;;;;;8282871;28;20153;-61
2022/07/21 14:42:24;;;;;;;2.88;2.22;;;;;;;;;;8283075;28;20479;-62
2022/07/21 14:46:24;;;;;;;4.55;2.38;;;;;;;;;;8286290;28;20037;-61
2022/07/21 14:50:26;;;;;;;3.83;2.72;;;;;;;;;;8280725;28;20021;-61
2022/07/21 14:54:27;;;;;;;5.85;2.70;;;;;;;;;;8283725;28;20582;-62
2022/07/21 14:58:27;;;;;;;7.15;2.42;;;;;;;;;;8286534;28;20025;-61
2022/07/21 15:02:27;;;;;;;3.80;2.70;;;;;;;;;;8283366;28;20172;-61
2022/07/21 15:06:27;;;;;;;3.72;2.75;;;;;;;;;;8285787;28;20018;-61
2022/07/21 15:10:28;;;;;;;2.87;2.50;;;;;;;;;;8284634;28;20067;-61
2022/07/21 15:14:28;;;;;;;2.85;2.65;;;;;;;;;;8284307;28;20407;-67
2022/07/21 15:18:28;;;;;;;3.03;2.25;;;;;;;;;;8281670;28;20037;-61
2022/07/21 15:22:29;;;;;;;4.30;2.20;;;;;;;;;;8283176;28;20128;-61
2022/07/21 15:26:30;;;;;;;3.10;2.80;;;;;;;;;;8281191;28;20084;-60
2022/07/21 15:30:30;;;;;;;3.00;2.70;;;;;;;;;;8281162;28;20041;-60
2022/07/21 15:34:30;;;;;;;4.60;2.60;;;;;;;;;;8281512;28;20419;-60
2022/07/21 15:38:30;;;;;;;3.55;2.58;;;;;;;;;;8281970;28;20497;-60
2022/07/21 15:42:34;;;;;;;3.00;2.60;;;;;;;;;;8281609;28;20060;-61
2022/07/21 15:46:34;;;;;;;5.20;2.72;;;;;;;;;;8285408;28;20046;-61
2022/07/21 15:50:34;;;;;;;3.13;2.60;;;;;;;;;;8282268;28;20527;-60
2022/07/21 15:54:34;;;;;;;5.05;2.47;;;;;;;;;;8284608;28;20037;-61
2022/07/21 15:58:35;;;;;;;3.87;2.30;;;;;;;;;;8284042;28;20555;-61
2022/07/21 16:02:36;;;;;;;5.13;2.40;;;;;;;;;;8278602;28;20060;-61
2022/07/21 16:06:36;;;;;;;3.00;2.63;;;;;;;;;;8283010;28;20014;-61
2022/07/21 16:10:37;;;;;;;6.03;2.60;;;;;;;;;;8281334;28;20025;-61
2022/07/21 16:14:37;;;;;;;5.40;2.80;;;;;;;;;;8284171;28;20056;-61
2022/07/21 16:18:37;;;;;;;3.67;2.63;;;;;;;;;;8284103;28;20080;-60
2022/07/21 16:22:41;;;;;;;7.88;2.70;;;;;;;;;;8281270;28;20034;-61
2022/07/21 16:26:42;;;;;;;5.03;2.50;;;;;;;;;;8281557;28;20033;-61
2022/07/21 16:30:42;;;;;;;9.90;3.10;;;;;;;;;;8282453;28;20033;-61
2022/07/21 16:34:42;;;;;;;3.75;2.70;;;;;;;;;;8280585;28;20491;-61
2022/07/21 16:38:42;;;;;;;5.80;2.90;;;;;;;;;;8281293;28;20499;-61
2022/07/21 16:42:43;;;;;;;5.22;2.90;;;;;;;;;;8278962;28;20148;-61
2022/07/21 16:46:44;;;;;;;4.50;3.00;;;;;;;;;;8282050;28;20160;-61
2022/07/21 16:50:45;;;;;;;4.03;2.95;;;;;;;;;;8280495;28;20017;-61
2022/07/21 16:54:45;;;;;;;4.90;3.03;;;;;;;;;;8281597;28;20493;-60
2022/07/21 16:58:45;;;;;;;4.65;2.92;;;;;;;;;;8282400;28;20017;-61
2022/07/21 17:02:46;;;;;;;5.37;2.80;;;;;;;;;;8281010;28;20148;-61
2022/07/21 17:06:46;;;;;;;4.43;3.00;;;;;;;;;;8282573;28;20112;-62
2022/07/21 17:10:46;;;;;;;3.80;3.13;;;;;;;;;;8280570;28;20269;-60
2022/07/21 17:14:46;;;;;;;5.87;3.00;;;;;;;;;;8281208;28;20026;-61
2022/07/21 17:18:47;;;;;;;3.65;2.72;;;;;;;;;;8280743;28;20283;-61
2022/07/21 17:22:48;;;;;;;3.20;2.90;;;;;;;;;;8278393;28;20539;-61
2022/07/21 17:26:48;;;;;;;3.45;2.90;;;;;;;;;;8280279;28;20413;-61
2022/07/21 17:30:48;;;;;;;7.82;3.33;;;;;;;;;;8278672;28;20034;-61
2022/07/21 17:34:48;;;;;;;3.42;3.13;;;;;;;;;;8281671;28;20084;-61
2022/07/21 17:38:49;;;;;;;6.03;3.30;;;;;;;;;;8281938;28;20079;-61
2022/07/21 17:42:49;;;;;;;3.35;3.05;;;;;;;;;;8279990;28;20068;-61
2022/07/21 17:46:49;;;;;;;3.75;2.92;;;;;;;;;;8281821;28;20081;-60
2022/07/21 17:50:50;;;;;;;5.63;2.60;;;;;;;;;;8282056;28;20054;-60
2022/07/21 17:54:50;;;;;;;5.20;3.27;;;;;;;;;;8281544;28;20021;-61
2022/07/21 17:58:50;;;;;;;7.10;3.28;;;;;;;;;;8278055;28;20196;-61
2022/07/21 18:02:50;;;;;;;5.72;3.55;;;;;;;;;;8279316;28;20033;-61
2022/07/21 18:06:50;;;;;;;3.47;3.15;;;;;;;;;;8277925;28;20029;-61
2022/07/21 18:10:51;;;;;;;6.70;3.28;;;;;;;;;;8277657;28;20014;-60
2022/07/21 18:14:51;;;;;;;3.58;3.10;;;;;;;;;;8275912;28;20178;-60
2022/07/21 18:18:51;;;;;;;5.38;3.75;;;;;;;;;;8266109;28;20662;-61
2022/07/21 18:22:51;;;;;;;5.82;3.55;;;;;;;;;;8274226;28;20526;-61
2022/07/21 18:26:52;;;;;;;6.13;3.70;;;;;;;;;;8275921;28;20076;-62
2022/07/21 18:30:52;;;;;;;5.18;3.47;;;;;;;;;;8275631;28;20056;-61
2022/07/21 18:34:52;;;;;;;6.07;3.60;;;;;;;;;;8306164;28;20227;-60
2022/07/21 18:38:53;;;;;;;4.03;3.60;;;;;;;;;;8270946;28;20225;-62
2022/07/21 18:42:53;;;;;;;4.63;3.53;;;;;;;;;;8282896;28;20123;-61
2022/07/21 18:46:53;;;;;;;5.63;3.92;;;;;;;;;;8273358;28;20049;-60
2022/07/21 18:50:54;;;;;;;4.63;4.00;;;;;;;;;;8268917;28;20069;-61
2022/07/21 18:54:55;;;;;;;4.13;3.63;;;;;;;;;;8276862;28;20068;-60
2022/07/21 18:58:55;;;;;;;4.72;4.05;;;;;;;;;;8276490;28;20037;-61
2022/07/21 19:02:55;;;;;;;9.13;3.87;;;;;;;;;;8276118;28;20053;-61
2022/07/21 19:06:56;;;;;;;4.53;3.83;;;;;;;;;;8280416;28;21513;-61
2022/07/21 19:10:56;;;;;;;5.63;4.00;;;;;;;;;;8280433;28;20017;-61
2022/07/21 19:14:56;;;;;;;4.25;3.80;;;;;;;;;;8281085;28;20855;-61
2022/07/21 19:18:56;;;;;;;5.97;4.13;;;;;;;;;;8279525;28;20471;-61
2022/07/21 19:22:57;;;;;;;5.13;3.85;;;;;;;;;;8280396;28;20276;-60
2022/07/21 19:26:57;;;;;;;5.43;4.13;;;;;;;;;;8280224;28;20095;-60
2022/07/21 19:30:57;;;;;;;4.30;3.90;;;;;;;;;;8277391;28;20891;-60
2022/07/21 19:34:57;;;;;;;4.43;3.90;;;;;;;;;;8277394;28;20276;-60
2022/07/21 19:38:58;;;;;;;5.33;3.90;;;;;;;;;;8280905;28;20103;-61
2022/07/21 19:42:58;;;;;;;6.20;3.90;;;;;;;;;;8277334;28;20872;-60
2022/07/21 19:46:58;;;;;;;5.75;4.35;;;;;;;;;;8276628;28;20046;-60
2022/07/21 19:50:58;;;;;;;4.82;4.32;;;;;;;;;;8277573;28;20091;-61
2022/07/21 19:54:59;;;;;;;4.78;3.60;;;;;;;;;;8279023;28;20037;-60
2022/07/21 19:59:01;;;;;;;6.38;4.25;;;;;;;;;;8277193;28;20036;-60
2022/07/21 20:03:01;;;;;;;6.23;4.27;;;;;;;;;;8277309;28;20120;-60
2022/07/21 20:07:02;;;;;;;4.45;4.00;;;;;;;;;;8276185;28;20127;-60
2022/07/21 20:11:02;;;;;;;5.10;3.95;;;;;;;;;;8281627;28;20040;-60
2022/07/21 20:15:06;;;;;;;4.67;4.00;;;;;;;;;;8278763;28;20029;-61
2022/07/21 20:19:07;;;;;;;5.53;4.00;;;;;;;;;;8275333;28;20723;-60
2022/07/21 20:23:07;;;;;;;4.78;3.95;;;;;;;;;;8277400;28;20615;-61
2022/07/21 20:27:07;;;;;;;4.30;3.90;;;;;;;;;;8279230;28;20465;-61
2022/07/21 20:31:07;;;;;;;4.82;4.00;;;;;;;;;;8277020;28;20051;-61
2022/07/21 20:35:08;;;;;;;5.20;4.05;;;;;;;;;;8278509;28;20816;-60
2022/07/21 20:39:08;;;;;;;6.32;4.32;;;;;;;;;;8277046;28;20104;-61
2022/07/21 20:43:10;;;;;;;6.00;4.00;;;;;;;;;;8274946;28;20481;-60
2022/07/21 20:47:10;;;;;;;5.93;4.03;;;;;;;;;;8276415;28;20503;-60
2022/07/21 20:51:10;;;;;;;4.82;4.30;;;;;;;;;;8277041;28;20083;-60
2022/07/21 20:55:11;;;;;;;4.40;3.90;;;;;;;;;;8277398;28;20479;-60
2022/07/21 20:59:11;;;;;;;6.38;4.60;;;;;;;;;;8276064;28;20037;-61
2022/07/21 21:03:11;;;;;;;5.23;4.40;;;;;;;;;;8276287;28;20129;-60
2022/07/21 21:07:11;;;;;;;5.10;4.60;;;;;;;;;;8275234;28;20029;-61
2022/07/21 21:11:12;;;;;;;5.50;4.55;;;;;;;;;;8277375;28;20029;-60
2022/07/21 21:15:12;;;;;;;7.30;5.00;;;;;;;;;;8275661;28;20056;-60
2022/07/21 21:19:12;;;;;;;6.00;4.67;;;;;;;;;;8274879;28;20029;-61
2022/07/21 21:23:14;;;;;;;5.20;4.35;;;;;;;;;;8272963;28;20100;-61
2022/07/21 21:27:14;;;;;;;4.97;4.57;;;;;;;;;;8274558;28;20159;-60
2022/07/21 21:31:14;;;;;;;7.68;4.30;;;;;;;;;;8275917;28;20111;-60
2022/07/21 21:35:15;;;;;;;4.63;4.00;;;;;;;;;;8276753;28;20052;-60
2022/07/21 21:39:16;;;;;;;4.50;4.10;;;;;;;;;;8277576;28;20035;-62
2022/07/21 21:43:16;;;;;;;5.38;4.47;;;;;;;;;;8280108;28;20113;-60
2022/07/21 21:47:17;;;;;;;4.70;4.20;;;;;;;;;;8297895;28;20069;-62
2022/07/21 21:51:17;;;;;;;5.30;4.57;;;;;;;;;;8311184;28;20017;-61
2022/07/21 21:55:20;;;;;;;6.72;4.22;;;;;;;;;;8313829;28;20037;-61
2022/07/21 21:59:20;;;;;;;4.63;4.13;;;;;;;;;;8315157;28;20779;-61
2022/07/21 22:03:21;;;;;;;4.53;4.00;;;;;;;;;;8312071;28;20033;-61
2022/07/21 22:07:21;;;;;;;4.60;4.05;;;;;;;;;;8323130;28;20547;-61
2022/07/21 22:11:21;;;;;;;4.20;3.85;;;;;;;;;;8314862;28;20017;-61
2022/07/21 22:15:22;;;;;;;4.00;3.70;;;;;;;;;;8314648;28;20069;-61
2022/07/21 22:19:22;;;;;;;3.95;3.55;;;;;;;;;;8282393;28;20977;-61
2022/07/21 22:23:22;;;;;;;4.30;3.90;;;;;;;;;;8283087;28;20875;-60
2022/07/21 22:27:22;;;;;;;4.22;3.83;;;;;;;;;;8286542;28;20033;-60
2022/07/21 22:31:23;;;;;;;4.38;3.97;;;;;;;;;;8288840;28;21048;-61
2022/07/21 22:35:23;;;;;;;6.30;4.03;;;;;;;;;;8287480;28;20048;-61
2022/07/21 22:39:24;;;;;;;5.88;3.70;;;;;;;;;;8292504;28;20095;-60
2022/07/21 22:43:25;;;;;;;5.15;3.78;;;;;;;;;;8286816;28;20746;-61
2022/07/21 22:47:26;;;;;;;4.80;3.95;;;;;;;;;;8287311;28;20045;-64
2022/07/21 22:51:27;;;;;;;6.37;3.83;;;;;;;;;;8283742;28;20036;-61
2022/07/21 22:55:27;;;;;;;6.45;4.10;;;;;;;;;;8287966;28;20279;-61
2022/07/21 22:59:27;;;;;;;5.70;4.40;;;;;;;;;;8286306;28;20032;-60
2022/07/21 23:03:27;;;;;;;6.43;3.63;;;;;;;;;;8287541;28;20034;-61
2022/07/21 23:07:27;;;;;;;4.88;3.65;;;;;;;;;;8288341;28;20768;-61
2022/07/21 23:11:28;;;;;;;4.37;3.80;;;;;;;;;;8288982;28;20029;-61
2022/07/21 23:15:29;;;;;;;4.53;3.75;;;;;;;;;;8284677;28;20116;-61
2022/07/21 23:19:29;;;;;;;4.53;4.13;;;;;;;;;;8287218;28;20041;-61
2022/07/21 23:23:30;;;;;;;4.75;4.10;;;;;;;;;;8287755;28;20036;-61
2022/07/21 23:27:31;;;;;;;5.72;4.40;;;;;;;;;;8285854;28;20537;-61
2022/07/21 23:31:31;;;;;;;6.55;4.38;;;;;;;;;;8295244;28;20041;-61
2022/07/21 23:35:31;;;;;;;5.25;4.63;;;;;;;;;;8285561;28;20030;-61
2022/07/21 23:39:32;;;;;;;7.23;4.70;;;;;;;;;;8288510;28;20118;-61
2022/07/21 23:43:32;;;;;;;6.22;4.40;;;;;;;;;;8287401;28;20036;-61
2022/07/21 23:47:32;;;;;;;6.10;4.70;;;;;;;;;;8286697;28;20045;-61
2022/07/21 23:51:32;;;;;;;5.90;5.03;;;;;;;;;;8284725;28;20029;-61
2022/07/21 23:55:33;;;;;;;5.13;4.67;;;;;;;;;;8287738;28;20088;-61
2022/07/21 23:59:33;;;;;;;4.85;4.30;;;;;;;;;;8284457;28;20028;-60
